sensor_id;sensor_type;location;lat;lon;timestamp;temperature;humidity
32877;DHT22;19226;51.600;8.034;2023-05-07T00:02:31;15.30;99.90
32877;DHT22;19226;51.600;8.034;2023-05-07T00:05:16;15.30;99.90
32877;DHT22;19226;51.600;8.034;2023-05-07T00:08:01;15.30;99.90
32877;DHT22;19226;51.600;8.034;2023-05-07T00:10:46;15.30;99.90
32877;DHT22;19226;51.600;8.034;2023-05-07T00:13:31;15.30;99.90
32877;DHT22;19226;51.600;8.034;2023-05-07T00:16:19;15.30;99.90
32877;DHT22;19226;51.600;8.034;2023-05-07T00:19:04;15.30;99.90
32877;DHT22;19226;51.600;8.034;2023-05-07T00:21:48;15.30;99.90
32877;DHT22;19226;51.600;8.034;2023-05-07T00:24:33;15.30;99.90
32877;DHT22;19226;51.600;8.034;2023-05-07T00:27:18;15.30;99.90
32877;DHT22;19226;51.600;8.034;2023-05-07T00:30:02;15.20;99.90
32877;DHT22;19226;51.600;8.034;2023-05-07T00:32:47;15.30;99.90
32877;DHT22;19226;51.600;8.034;2023-05-07T00:35:33;15.20;99.90
32877;DHT22;19226;51.600;8.034;2023-05-07T00:38:18;15.30;99.90
32877;DHT22;19226;51.600;8.034;2023-05-07T00:41:02;15.20;99.90
32877;DHT22;19226;51.600;8.034;2023-05-07T00:43:47;15.20;99.90
32877;DHT22;19226;51.600;8.034;2023-05-07T00:46:32;15.20;99.90
32877;DHT22;19226;51.600;8.034;2023-05-07T00:49:17;15.20;99.90
32877;DHT22;19226;51.600;8.034;2023-05-07T00:52:02;15.20;99.90
32877;DHT22;19226;51.600;8.034;2023-05-07T00:54:46;15.20;99.90
32877;DHT22;19226;51.600;8.034;2023-05-07T00:57:40;15.20;99.90
32877;DHT22;19226;51.600;8.034;2023-05-07T01:00:25;15.30;99.90
32877;DHT22;19226;51.600;8.034;2023-05-07T01:03:09;15.30;99.90
32877;DHT22;19226;51.600;8.034;2023-05-07T01:05:55;15.20;99.90
32877;DHT22;19226;51.600;8.034;2023-05-07T01:08:42;15.30;99.90
32877;DHT22;19226;51.600;8.034;2023-05-07T01:11:27;15.30;99.90
32877;DHT22;19226;51.600;8.034;2023-05-07T01:14:11;15.30;99.90
32877;DHT22;19226;51.600;8.034;2023-05-07T01:16:56;15.30;99.90
32877;DHT22;19226;51.600;8.034;2023-05-07T01:19:42;15.30;99.90
32877;DHT22;19226;51.600;8.034;2023-05-07T01:22:33;15.30;99.90
32877;DHT22;19226;51.600;8.034;2023-05-07T01:25:18;15.30;99.90
32877;DHT22;19226;51.600;8.034;2023-05-07T01:28:07;15.30;99.90
32877;DHT22;19226;51.600;8.034;2023-05-07T01:30:57;15.30;99.90
32877;DHT22;19226;51.600;8.034;2023-05-07T01:33:44;15.30;99.90
32877;DHT22;19226;51.600;8.034;2023-05-07T01:36:30;15.30;99.90
32877;DHT22;19226;51.600;8.034;2023-05-07T01:39:16;15.20;99.90
32877;DHT22;19226;51.600;8.034;2023-05-07T01:42:01;15.20;99.90
32877;DHT22;19226;51.600;8.034;2023-05-07T01:44:46;15.20;99.90
32877;DHT22;19226;51.600;8.034;2023-05-07T01:47:30;15.10;99.90
32877;DHT22;19226;51.600;8.034;2023-05-07T01:50:17;15.10;99.90
32877;DHT22;19226;51.600;8.034;2023-05-07T01:53:03;15.10;99.90
32877;DHT22;19226;51.600;8.034;2023-05-07T01:55:47;15.10;99.90
32877;DHT22;19226;51.600;8.034;2023-05-07T01:58:33;15.10;99.90
32877;DHT22;19226;51.600;8.034;2023-05-07T02:01:17;15.10;99.90
32877;DHT22;19226;51.600;8.034;2023-05-07T02:04:02;15.10;99.90
32877;DHT22;19226;51.600;8.034;2023-05-07T02:06:48;15.10;99.90
32877;DHT22;19226;51.600;8.034;2023-05-07T02:09:33;15.10;99.90
32877;DHT22;19226;51.600;8.034;2023-05-07T02:12:19;15.10;99.90
32877;DHT22;19226;51.600;8.034;2023-05-07T02:15:03;15.10;99.90
32877;DHT22;19226;51.600;8.034;2023-05-07T02:18:03;15.00;99.90
32877;DHT22;19226;51.600;8.034;2023-05-07T02:20:48;15.00;99.90
32877;DHT22;19226;51.600;8.034;2023-05-07T02:23:32;14.90;99.90
32877;DHT22;19226;51.600;8.034;2023-05-07T02:26:17;15.00;99.90
32877;DHT22;19226;51.600;8.034;2023-05-07T02:29:02;14.90;99.90
32877;DHT22;19226;51.600;8.034;2023-05-07T02:31:47;15.00;99.90
32877;DHT22;19226;51.600;8.034;2023-05-07T02:34:35;15.00;99.90
32877;DHT22;19226;51.600;8.034;2023-05-07T02:37:19;15.00;99.90
32877;DHT22;19226;51.600;8.034;2023-05-07T02:40:05;15.00;99.90
32877;DHT22;19226;51.600;8.034;2023-05-07T02:42:50;15.00;99.90
32877;DHT22;19226;51.600;8.034;2023-05-07T02:45:35;14.90;99.90
32877;DHT22;19226;51.600;8.034;2023-05-07T02:48:23;14.90;99.90
32877;DHT22;19226;51.600;8.034;2023-05-07T02:51:07;14.90;99.90
32877;DHT22;19226;51.600;8.034;2023-05-07T02:53:54;14.90;99.90
32877;DHT22;19226;51.600;8.034;2023-05-07T02:56:39;14.90;99.90
32877;DHT22;19226;51.600;8.034;2023-05-07T02:59:24;14.90;99.90
32877;DHT22;19226;51.600;8.034;2023-05-07T03:02:10;14.90;99.90
32877;DHT22;19226;51.600;8.034;2023-05-07T03:04:55;14.90;99.90
32877;DHT22;19226;51.600;8.034;2023-05-07T03:07:39;14.90;99.90
32877;DHT22;19226;51.600;8.034;2023-05-07T03:10:25;14.90;99.90
32877;DHT22;19226;51.600;8.034;2023-05-07T03:13:10;14.80;99.90
32877;DHT22;19226;51.600;8.034;2023-05-07T03:15:54;14.80;99.90
32877;DHT22;19226;51.600;8.034;2023-05-07T03:18:39;14.80;99.90
32877;DHT22;19226;51.600;8.034;2023-05-07T03:21:23;14.80;99.90
32877;DHT22;19226;51.600;8.034;2023-05-07T03:24:08;14.80;99.90
32877;DHT22;19226;51.600;8.034;2023-05-07T03:26:52;14.80;99.90
32877;DHT22;19226;51.600;8.034;2023-05-07T03:29:37;14.80;99.90
32877;DHT22;19226;51.600;8.034;2023-05-07T03:32:22;14.80;99.90
32877;DHT22;19226;51.600;8.034;2023-05-07T03:35:07;14.70;99.90
32877;DHT22;19226;51.600;8.034;2023-05-07T03:37:52;14.70;99.90
32877;DHT22;19226;51.600;8.034;2023-05-07T03:40:38;14.70;99.90
32877;DHT22;19226;51.600;8.034;2023-05-07T03:43:23;14.70;99.90
32877;DHT22;19226;51.600;8.034;2023-05-07T03:46:15;14.70;99.90
32877;DHT22;19226;51.600;8.034;2023-05-07T03:49:00;14.60;99.90
32877;DHT22;19226;51.600;8.034;2023-05-07T03:51:46;14.60;99.90
32877;DHT22;19226;51.600;8.034;2023-05-07T03:54:30;14.70;99.90
32877;DHT22;19226;51.600;8.034;2023-05-07T03:57:15;14.60;99.90
32877;DHT22;19226;51.600;8.034;2023-05-07T03:59:59;14.60;99.90
32877;DHT22;19226;51.600;8.034;2023-05-07T04:02:44;14.60;99.90
32877;DHT22;19226;51.600;8.034;2023-05-07T04:05:29;14.60;99.90
32877;DHT22;19226;51.600;8.034;2023-05-07T04:08:17;14.60;99.90
32877;DHT22;19226;51.600;8.034;2023-05-07T04:11:08;14.60;99.90
32877;DHT22;19226;51.600;8.034;2023-05-07T04:13:55;14.60;99.90
32877;DHT22;19226;51.600;8.034;2023-05-07T04:16:41;14.60;99.90
32877;DHT22;19226;51.600;8.034;2023-05-07T04:19:26;14.60;99.90
32877;DHT22;19226;51.600;8.034;2023-05-07T04:22:11;14.60;99.90
32877;DHT22;19226;51.600;8.034;2023-05-07T04:24:56;14.60;99.90
32877;DHT22;19226;51.600;8.034;2023-05-07T04:27:41;14.60;99.90
32877;DHT22;19226;51.600;8.034;2023-05-07T04:30:26;14.60;99.90
32877;DHT22;19226;51.600;8.034;2023-05-07T04:33:10;14.50;99.90
32877;DHT22;19226;51.600;8.034;2023-05-07T04:35:58;14.60;99.90
32877;DHT22;19226;51.600;8.034;2023-05-07T04:38:48;14.60;99.90
32877;DHT22;19226;51.600;8.034;2023-05-07T04:41:32;14.60;99.90
32877;DHT22;19226;51.600;8.034;2023-05-07T04:44:17;14.60;99.90
32877;DHT22;19226;51.600;8.034;2023-05-07T04:47:02;14.60;99.90
32877;DHT22;19226;51.600;8.034;2023-05-07T04:49:47;14.60;99.90
32877;DHT22;19226;51.600;8.034;2023-05-07T04:52:31;14.60;99.90
32877;DHT22;19226;51.600;8.034;2023-05-07T04:55:17;14.60;99.90
32877;DHT22;19226;51.600;8.034;2023-05-07T04:58:02;14.60;99.90
32877;DHT22;19226;51.600;8.034;2023-05-07T05:00:49;14.50;99.90
32877;DHT22;19226;51.600;8.034;2023-05-07T05:03:34;14.50;99.90
32877;DHT22;19226;51.600;8.034;2023-05-07T05:06:18;14.60;99.90
32877;DHT22;19226;51.600;8.034;2023-05-07T05:09:03;14.60;99.90
32877;DHT22;19226;51.600;8.034;2023-05-07T05:11:49;14.60;99.90
32877;DHT22;19226;51.600;8.034;2023-05-07T05:14:34;14.60;99.90
32877;DHT22;19226;51.600;8.034;2023-05-07T05:17:19;14.50;99.90
32877;DHT22;19226;51.600;8.034;2023-05-07T05:20:04;14.60;99.90
32877;DHT22;19226;51.600;8.034;2023-05-07T05:22:50;14.60;99.90
32877;DHT22;19226;51.600;8.034;2023-05-07T05:25:35;14.60;99.90
32877;DHT22;19226;51.600;8.034;2023-05-07T05:28:19;14.60;99.90
32877;DHT22;19226;51.600;8.034;2023-05-07T05:31:04;14.60;99.90
32877;DHT22;19226;51.600;8.034;2023-05-07T05:33:52;14.60;99.90
32877;DHT22;19226;51.600;8.034;2023-05-07T05:36:38;14.50;99.90
32877;DHT22;19226;51.600;8.034;2023-05-07T05:39:23;14.50;99.90
32877;DHT22;19226;51.600;8.034;2023-05-07T05:42:07;14.60;99.90
32877;DHT22;19226;51.600;8.034;2023-05-07T05:44:53;14.60;99.90
32877;DHT22;19226;51.600;8.034;2023-05-07T05:47:38;14.60;99.90
32877;DHT22;19226;51.600;8.034;2023-05-07T05:50:24;14.60;99.90
32877;DHT22;19226;51.600;8.034;2023-05-07T05:53:09;14.60;99.90
32877;DHT22;19226;51.600;8.034;2023-05-07T05:55:54;14.60;99.90
32877;DHT22;19226;51.600;8.034;2023-05-07T05:58:39;14.60;99.90
32877;DHT22;19226;51.600;8.034;2023-05-07T06:01:25;14.60;99.90
32877;DHT22;19226;51.600;8.034;2023-05-07T06:04:11;14.70;99.90
32877;DHT22;19226;51.600;8.034;2023-05-07T06:06:56;14.70;99.90
32877;DHT22;19226;51.600;8.034;2023-05-07T06:09:42;14.80;99.90
32877;DHT22;19226;51.600;8.034;2023-05-07T06:12:27;14.80;99.90
32877;DHT22;19226;51.600;8.034;2023-05-07T06:15:12;14.80;99.90
32877;DHT22;19226;51.600;8.034;2023-05-07T06:17:58;14.90;99.90
32877;DHT22;19226;51.600;8.034;2023-05-07T06:20:43;14.90;99.90
32877;DHT22;19226;51.600;8.034;2023-05-07T06:23:34;15.00;99.90
32877;DHT22;19226;51.600;8.034;2023-05-07T06:26:20;15.00;99.90
32877;DHT22;19226;51.600;8.034;2023-05-07T06:29:06;15.10;99.90
32877;DHT22;19226;51.600;8.034;2023-05-07T06:31:50;15.10;99.90
32877;DHT22;19226;51.600;8.034;2023-05-07T06:34:35;15.10;99.90
32877;DHT22;19226;51.600;8.034;2023-05-07T06:37:20;15.20;99.90
32877;DHT22;19226;51.600;8.034;2023-05-07T06:40:14;15.20;99.90
32877;DHT22;19226;51.600;8.034;2023-05-07T06:43:00;15.30;99.90
32877;DHT22;19226;51.600;8.034;2023-05-07T06:45:59;15.30;99.90
32877;DHT22;19226;51.600;8.034;2023-05-07T06:48:43;15.40;99.90
32877;DHT22;19226;51.600;8.034;2023-05-07T06:51:28;15.40;99.90
32877;DHT22;19226;51.600;8.034;2023-05-07T06:54:15;15.50;99.90
32877;DHT22;19226;51.600;8.034;2023-05-07T06:57:01;15.60;99.90
32877;DHT22;19226;51.600;8.034;2023-05-07T06:59:47;15.60;99.90
32877;DHT22;19226;51.600;8.034;2023-05-07T07:02:32;15.70;99.90
32877;DHT22;19226;51.600;8.034;2023-05-07T07:05:16;15.80;99.90
32877;DHT22;19226;51.600;8.034;2023-05-07T07:08:01;15.80;99.90
32877;DHT22;19226;51.600;8.034;2023-05-07T07:10:46;15.90;99.90
32877;DHT22;19226;51.600;8.034;2023-05-07T07:13:30;15.90;99.90
32877;DHT22;19226;51.600;8.034;2023-05-07T07:16:15;16.00;99.90
32877;DHT22;19226;51.600;8.034;2023-05-07T07:19:00;16.00;99.90
32877;DHT22;19226;51.600;8.034;2023-05-07T07:21:44;16.10;99.90
32877;DHT22;19226;51.600;8.034;2023-05-07T07:24:31;16.10;99.90
32877;DHT22;19226;51.600;8.034;2023-05-07T07:27:19;16.20;99.90
32877;DHT22;19226;51.600;8.034;2023-05-07T07:30:04;16.20;99.90
32877;DHT22;19226;51.600;8.034;2023-05-07T07:32:52;16.30;99.90
32877;DHT22;19226;51.600;8.034;2023-05-07T07:35:38;16.30;99.90
32877;DHT22;19226;51.600;8.034;2023-05-07T07:38:23;16.40;99.90
32877;DHT22;19226;51.600;8.034;2023-05-07T07:41:08;16.50;99.90
32877;DHT22;19226;51.600;8.034;2023-05-07T07:43:54;16.50;99.90
32877;DHT22;19226;51.600;8.034;2023-05-07T07:46:40;16.60;99.90
32877;DHT22;19226;51.600;8.034;2023-05-07T07:49:25;16.60;99.90
32877;DHT22;19226;51.600;8.034;2023-05-07T07:52:09;16.70;99.90
32877;DHT22;19226;51.600;8.034;2023-05-07T07:54:55;16.70;99.90
32877;DHT22;19226;51.600;8.034;2023-05-07T07:57:40;16.70;99.90
32877;DHT22;19226;51.600;8.034;2023-05-07T08:00:25;16.80;99.90
32877;DHT22;19226;51.600;8.034;2023-05-07T08:03:13;16.80;99.90
32877;DHT22;19226;51.600;8.034;2023-05-07T08:06:03;16.80;99.90
32877;DHT22;19226;51.600;8.034;2023-05-07T08:08:49;16.90;99.90
32877;DHT22;19226;51.600;8.034;2023-05-07T08:11:35;16.90;99.90
32877;DHT22;19226;51.600;8.034;2023-05-07T08:14:20;17.00;99.90
32877;DHT22;19226;51.600;8.034;2023-05-07T08:17:06;17.00;99.90
32877;DHT22;19226;51.600;8.034;2023-05-07T08:19:52;17.10;99.90
32877;DHT22;19226;51.600;8.034;2023-05-07T08:22:37;17.10;99.90
32877;DHT22;19226;51.600;8.034;2023-05-07T08:25:22;17.20;99.90
32877;DHT22;19226;51.600;8.034;2023-05-07T08:28:07;17.20;99.90
32877;DHT22;19226;51.600;8.034;2023-05-07T08:30:51;17.30;99.90
32877;DHT22;19226;51.600;8.034;2023-05-07T08:33:37;17.50;99.90
32877;DHT22;19226;51.600;8.034;2023-05-07T08:36:23;17.50;99.90
32877;DHT22;19226;51.600;8.034;2023-05-07T08:39:07;17.50;99.90
32877;DHT22;19226;51.600;8.034;2023-05-07T08:41:55;17.50;99.90
32877;DHT22;19226;51.600;8.034;2023-05-07T08:44:45;17.70;99.90
32877;DHT22;19226;51.600;8.034;2023-05-07T08:47:42;17.80;99.90
32877;DHT22;19226;51.600;8.034;2023-05-07T08:50:28;17.90;99.90
32877;DHT22;19226;51.600;8.034;2023-05-07T08:53:14;18.10;99.90
32877;DHT22;19226;51.600;8.034;2023-05-07T08:55:59;18.20;99.90
32877;DHT22;19226;51.600;8.034;2023-05-07T08:58:47;18.30;99.90
32877;DHT22;19226;51.600;8.034;2023-05-07T09:01:32;18.50;99.90
32877;DHT22;19226;51.600;8.034;2023-05-07T09:04:16;18.60;99.90
32877;DHT22;19226;51.600;8.034;2023-05-07T09:07:02;18.80;99.90
32877;DHT22;19226;51.600;8.034;2023-05-07T09:09:52;19.00;99.90
32877;DHT22;19226;51.600;8.034;2023-05-07T09:12:39;19.00;99.90
32877;DHT22;19226;51.600;8.034;2023-05-07T09:15:27;19.10;99.90
32877;DHT22;19226;51.600;8.034;2023-05-07T09:18:12;19.30;99.90
32877;DHT22;19226;51.600;8.034;2023-05-07T09:20:57;19.40;99.90
32877;DHT22;19226;51.600;8.034;2023-05-07T09:23:42;19.50;99.90
32877;DHT22;19226;51.600;8.034;2023-05-07T09:26:27;19.60;99.90
32877;DHT22;19226;51.600;8.034;2023-05-07T09:29:13;19.60;99.90
32877;DHT22;19226;51.600;8.034;2023-05-07T09:31:59;19.50;99.90
32877;DHT22;19226;51.600;8.034;2023-05-07T09:34:44;19.50;99.90
32877;DHT22;19226;51.600;8.034;2023-05-07T09:37:31;19.50;99.90
32877;DHT22;19226;51.600;8.034;2023-05-07T09:40:30;19.50;99.90
32877;DHT22;19226;51.600;8.034;2023-05-07T09:43:18;19.50;99.90
32877;DHT22;19226;51.600;8.034;2023-05-07T09:46:14;19.60;99.90
32877;DHT22;19226;51.600;8.034;2023-05-07T09:49:07;19.80;99.90
32877;DHT22;19226;51.600;8.034;2023-05-07T09:51:55;20.00;99.90
32877;DHT22;19226;51.600;8.034;2023-05-07T09:54:43;20.20;99.90
32877;DHT22;19226;51.600;8.034;2023-05-07T09:57:30;20.40;99.90
32877;DHT22;19226;51.600;8.034;2023-05-07T10:00:20;20.50;99.90
32877;DHT22;19226;51.600;8.034;2023-05-07T10:03:06;20.50;99.90
32877;DHT22;19226;51.600;8.034;2023-05-07T10:06:00;20.40;99.90
32877;DHT22;19226;51.600;8.034;2023-05-07T10:08:46;20.40;99.90
32877;DHT22;19226;51.600;8.034;2023-05-07T10:11:35;20.50;99.90
32877;DHT22;19226;51.600;8.034;2023-05-07T10:14:21;20.50;99.90
32877;DHT22;19226;51.600;8.034;2023-05-07T10:17:07;20.60;99.90
32877;DHT22;19226;51.600;8.034;2023-05-07T10:19:54;20.70;99.90
32877;DHT22;19226;51.600;8.034;2023-05-07T10:22:43;20.80;99.90
32877;DHT22;19226;51.600;8.034;2023-05-07T10:25:31;20.90;99.90
32877;DHT22;19226;51.600;8.034;2023-05-07T10:28:22;21.10;99.90
32877;DHT22;19226;51.600;8.034;2023-05-07T10:31:18;21.20;99.90
32877;DHT22;19226;51.600;8.034;2023-05-07T10:34:12;21.40;99.90
32877;DHT22;19226;51.600;8.034;2023-05-07T10:36:58;21.50;99.90
32877;DHT22;19226;51.600;8.034;2023-05-07T10:39:43;21.50;99.90
32877;DHT22;19226;51.600;8.034;2023-05-07T10:42:28;21.60;99.90
32877;DHT22;19226;51.600;8.034;2023-05-07T10:45:14;21.70;99.90
32877;DHT22;19226;51.600;8.034;2023-05-07T10:48:16;21.70;99.90
32877;DHT22;19226;51.600;8.034;2023-05-07T10:51:20;21.90;99.90
32877;DHT22;19226;51.600;8.034;2023-05-07T10:56:55;22.00;99.90
32877;DHT22;19226;51.600;8.034;2023-05-07T10:59:44;22.20;99.90
32877;DHT22;19226;51.600;8.034;2023-05-07T11:03:06;22.20;99.90
32877;DHT22;19226;51.600;8.034;2023-05-07T11:06:15;22.10;99.90
32877;DHT22;19226;51.600;8.034;2023-05-07T11:09:23;22.20;99.90
32877;DHT22;19226;51.600;8.034;2023-05-07T11:12:15;22.30;99.90
32877;DHT22;19226;51.600;8.034;2023-05-07T11:15:10;22.40;99.90
32877;DHT22;19226;51.600;8.034;2023-05-07T11:17:58;22.60;99.90
32877;DHT22;19226;51.600;8.034;2023-05-07T11:20:48;22.60;99.90
32877;DHT22;19226;51.600;8.034;2023-05-07T11:26:57;22.70;99.90
32877;DHT22;19226;51.600;8.034;2023-05-07T11:29:46;22.60;99.90
32877;DHT22;19226;51.600;8.034;2023-05-07T11:32:32;22.50;99.90
32877;DHT22;19226;51.600;8.034;2023-05-07T11:35:18;22.40;99.90
32877;DHT22;19226;51.600;8.034;2023-05-07T11:38:07;22.40;99.90
32877;DHT22;19226;51.600;8.034;2023-05-07T11:40:54;22.40;99.90
32877;DHT22;19226;51.600;8.034;2023-05-07T11:43:53;22.40;99.90
32877;DHT22;19226;51.600;8.034;2023-05-07T11:46:43;22.40;99.90
32877;DHT22;19226;51.600;8.034;2023-05-07T11:49:28;22.40;99.90
32877;DHT22;19226;51.600;8.034;2023-05-07T11:52:14;22.50;99.90
32877;DHT22;19226;51.600;8.034;2023-05-07T11:55:00;22.50;99.90
32877;DHT22;19226;51.600;8.034;2023-05-07T11:57:45;22.60;99.90
32877;DHT22;19226;51.600;8.034;2023-05-07T12:00:30;22.50;99.90
32877;DHT22;19226;51.600;8.034;2023-05-07T12:03:14;22.60;99.90
32877;DHT22;19226;51.600;8.034;2023-05-07T12:06:00;22.70;99.90
32877;DHT22;19226;51.600;8.034;2023-05-07T12:08:45;22.70;99.90
32877;DHT22;19226;51.600;8.034;2023-05-07T12:11:30;22.80;99.90
32877;DHT22;19226;51.600;8.034;2023-05-07T12:14:14;22.90;99.90
32877;DHT22;19226;51.600;8.034;2023-05-07T12:17:03;22.90;99.90
32877;DHT22;19226;51.600;8.034;2023-05-07T12:19:47;23.00;99.90
32877;DHT22;19226;51.600;8.034;2023-05-07T12:22:32;23.10;99.90
32877;DHT22;19226;51.600;8.034;2023-05-07T12:25:19;23.20;99.90
32877;DHT22;19226;51.600;8.034;2023-05-07T12:28:04;23.20;99.90
32877;DHT22;19226;51.600;8.034;2023-05-07T12:30:50;23.10;99.90
32877;DHT22;19226;51.600;8.034;2023-05-07T12:33:35;23.20;99.90
32877;DHT22;19226;51.600;8.034;2023-05-07T12:36:20;23.20;99.90
32877;DHT22;19226;51.600;8.034;2023-05-07T12:39:06;23.30;99.90
32877;DHT22;19226;51.600;8.034;2023-05-07T12:41:56;23.20;99.90
32877;DHT22;19226;51.600;8.034;2023-05-07T12:44:46;23.20;99.90
32877;DHT22;19226;51.600;8.034;2023-05-07T12:47:31;23.20;99.90
32877;DHT22;19226;51.600;8.034;2023-05-07T12:50:16;23.10;99.90
32877;DHT22;19226;51.600;8.034;2023-05-07T12:53:04;23.20;99.90
32877;DHT22;19226;51.600;8.034;2023-05-07T12:55:54;23.20;99.90
32877;DHT22;19226;51.600;8.034;2023-05-07T12:58:38;23.20;99.90
32877;DHT22;19226;51.600;8.034;2023-05-07T13:01:29;23.20;99.90
32877;DHT22;19226;51.600;8.034;2023-05-07T13:04:14;23.30;99.90
32877;DHT22;19226;51.600;8.034;2023-05-07T13:06:59;23.30;99.90
32877;DHT22;19226;51.600;8.034;2023-05-07T13:09:44;23.30;99.90
32877;DHT22;19226;51.600;8.034;2023-05-07T13:12:29;23.30;99.90
32877;DHT22;19226;51.600;8.034;2023-05-07T13:15:13;23.40;99.90
32877;DHT22;19226;51.600;8.034;2023-05-07T13:17:58;23.40;99.90
32877;DHT22;19226;51.600;8.034;2023-05-07T13:20:43;23.60;99.90
32877;DHT22;19226;51.600;8.034;2023-05-07T13:23:28;23.70;99.90
32877;DHT22;19226;51.600;8.034;2023-05-07T13:26:13;23.70;99.90
32877;DHT22;19226;51.600;8.034;2023-05-07T13:28:58;23.60;99.90
32877;DHT22;19226;51.600;8.034;2023-05-07T13:31:42;23.60;99.90
32877;DHT22;19226;51.600;8.034;2023-05-07T13:34:28;23.60;99.90
32877;DHT22;19226;51.600;8.034;2023-05-07T13:37:12;23.70;99.90
32877;DHT22;19226;51.600;8.034;2023-05-07T13:39:57;23.70;99.90
32877;DHT22;19226;51.600;8.034;2023-05-07T13:42:41;23.60;99.90
32877;DHT22;19226;51.600;8.034;2023-05-07T13:45:26;23.50;99.90
32877;DHT22;19226;51.600;8.034;2023-05-07T13:48:13;23.40;99.90
32877;DHT22;19226;51.600;8.034;2023-05-07T13:50:58;23.20;99.90
32877;DHT22;19226;51.600;8.034;2023-05-07T13:53:42;23.20;99.90
32877;DHT22;19226;51.600;8.034;2023-05-07T13:56:27;23.00;99.90
32877;DHT22;19226;51.600;8.034;2023-05-07T13:59:12;23.00;99.90
32877;DHT22;19226;51.600;8.034;2023-05-07T14:01:58;22.90;99.90
32877;DHT22;19226;51.600;8.034;2023-05-07T14:04:43;22.80;99.90
32877;DHT22;19226;51.600;8.034;2023-05-07T14:07:28;22.80;99.90
32877;DHT22;19226;51.600;8.034;2023-05-07T14:10:13;22.80;99.90
32877;DHT22;19226;51.600;8.034;2023-05-07T14:12:57;22.70;99.90
32877;DHT22;19226;51.600;8.034;2023-05-07T14:15:42;22.60;99.90
32877;DHT22;19226;51.600;8.034;2023-05-07T14:18:30;22.50;99.90
32877;DHT22;19226;51.600;8.034;2023-05-07T14:21:15;22.50;99.90
32877;DHT22;19226;51.600;8.034;2023-05-07T14:24:00;22.40;99.90
32877;DHT22;19226;51.600;8.034;2023-05-07T14:26:44;22.50;99.90
32877;DHT22;19226;51.600;8.034;2023-05-07T14:29:29;22.40;99.90
32877;DHT22;19226;51.600;8.034;2023-05-07T14:32:14;22.30;99.90
32877;DHT22;19226;51.600;8.034;2023-05-07T14:34:58;22.30;99.90
32877;DHT22;19226;51.600;8.034;2023-05-07T14:37:43;22.20;99.90
32877;DHT22;19226;51.600;8.034;2023-05-07T14:40:28;22.20;99.90
32877;DHT22;19226;51.600;8.034;2023-05-07T14:43:12;22.00;99.90
32877;DHT22;19226;51.600;8.034;2023-05-07T14:45:57;21.70;99.90
32877;DHT22;19226;51.600;8.034;2023-05-07T14:48:42;21.60;99.90
32877;DHT22;19226;51.600;8.034;2023-05-07T14:51:26;21.50;99.90
32877;DHT22;19226;51.600;8.034;2023-05-07T14:54:13;21.40;99.90
32877;DHT22;19226;51.600;8.034;2023-05-07T14:56:57;21.40;99.90
32877;DHT22;19226;51.600;8.034;2023-05-07T14:59:42;21.30;99.90
32877;DHT22;19226;51.600;8.034;2023-05-07T15:02:27;21.20;99.90
32877;DHT22;19226;51.600;8.034;2023-05-07T15:05:11;21.10;99.90
32877;DHT22;19226;51.600;8.034;2023-05-07T15:07:56;21.10;99.90
32877;DHT22;19226;51.600;8.034;2023-05-07T15:10:41;21.10;99.90
32877;DHT22;19226;51.600;8.034;2023-05-07T15:13:25;21.00;99.90
32877;DHT22;19226;51.600;8.034;2023-05-07T15:16:10;21.10;99.90
32877;DHT22;19226;51.600;8.034;2023-05-07T15:18:54;21.00;99.90
32877;DHT22;19226;51.600;8.034;2023-05-07T15:21:40;21.00;99.90
32877;DHT22;19226;51.600;8.034;2023-05-07T15:24:25;21.00;99.90
32877;DHT22;19226;51.600;8.034;2023-05-07T15:27:10;21.00;99.90
32877;DHT22;19226;51.600;8.034;2023-05-07T15:29:54;21.00;99.90
32877;DHT22;19226;51.600;8.034;2023-05-07T15:32:39;21.00;99.90
32877;DHT22;19226;51.600;8.034;2023-05-07T15:35:25;21.00;99.90
32877;DHT22;19226;51.600;8.034;2023-05-07T15:38:10;21.00;99.90
32877;DHT22;19226;51.600;8.034;2023-05-07T15:40:54;21.10;99.90
32877;DHT22;19226;51.600;8.034;2023-05-07T15:43:47;21.10;99.90
32877;DHT22;19226;51.600;8.034;2023-05-07T15:46:32;21.10;99.90
32877;DHT22;19226;51.600;8.034;2023-05-07T15:49:16;21.10;99.90
32877;DHT22;19226;51.600;8.034;2023-05-07T15:52:01;21.10;99.90
32877;DHT22;19226;51.600;8.034;2023-05-07T15:54:45;21.10;99.90
32877;DHT22;19226;51.600;8.034;2023-05-07T15:57:30;21.10;99.90
32877;DHT22;19226;51.600;8.034;2023-05-07T16:00:15;21.10;99.90
32877;DHT22;19226;51.600;8.034;2023-05-07T16:03:01;21.10;99.90
32877;DHT22;19226;51.600;8.034;2023-05-07T16:05:45;21.10;99.90
32877;DHT22;19226;51.600;8.034;2023-05-07T16:08:30;21.10;99.90
32877;DHT22;19226;51.600;8.034;2023-05-07T16:11:15;21.10;99.90
32877;DHT22;19226;51.600;8.034;2023-05-07T16:13:59;21.10;99.90
32877;DHT22;19226;51.600;8.034;2023-05-07T16:16:44;21.10;99.90
32877;DHT22;19226;51.600;8.034;2023-05-07T16:19:29;21.10;99.90
32877;DHT22;19226;51.600;8.034;2023-05-07T16:22:13;21.00;99.90
32877;DHT22;19226;51.600;8.034;2023-05-07T16:24:58;21.00;99.90
32877;DHT22;19226;51.600;8.034;2023-05-07T16:27:42;21.00;99.90
32877;DHT22;19226;51.600;8.034;2023-05-07T16:30:27;20.90;99.90
32877;DHT22;19226;51.600;8.034;2023-05-07T16:33:11;20.90;99.90
32877;DHT22;19226;51.600;8.034;2023-05-07T16:35:56;20.80;99.90
32877;DHT22;19226;51.600;8.034;2023-05-07T16:38:40;20.70;99.90
32877;DHT22;19226;51.600;8.034;2023-05-07T16:41:25;20.60;99.90
32877;DHT22;19226;51.600;8.034;2023-05-07T16:44:10;20.60;99.90
32877;DHT22;19226;51.600;8.034;2023-05-07T16:46:54;20.60;99.90
32877;DHT22;19226;51.600;8.034;2023-05-07T16:49:39;20.50;99.90
32877;DHT22;19226;51.600;8.034;2023-05-07T16:52:23;20.40;99.90
32877;DHT22;19226;51.600;8.034;2023-05-07T16:55:08;20.30;99.90
32877;DHT22;19226;51.600;8.034;2023-05-07T16:57:52;20.30;99.90
32877;DHT22;19226;51.600;8.034;2023-05-07T17:00:37;20.20;99.90
32877;DHT22;19226;51.600;8.034;2023-05-07T17:03:22;20.20;99.90
32877;DHT22;19226;51.600;8.034;2023-05-07T17:06:06;20.10;99.90
32877;DHT22;19226;51.600;8.034;2023-05-07T17:08:57;20.10;99.90
32877;DHT22;19226;51.600;8.034;2023-05-07T17:11:42;20.00;99.90
32877;DHT22;19226;51.600;8.034;2023-05-07T17:14:27;19.90;99.90
32877;DHT22;19226;51.600;8.034;2023-05-07T17:17:11;19.90;99.90
32877;DHT22;19226;51.600;8.034;2023-05-07T17:19:56;19.90;99.90
32877;DHT22;19226;51.600;8.034;2023-05-07T17:22:40;19.80;99.90
32877;DHT22;19226;51.600;8.034;2023-05-07T17:25:25;19.80;99.90
32877;DHT22;19226;51.600;8.034;2023-05-07T17:28:13;19.80;99.90
32877;DHT22;19226;51.600;8.034;2023-05-07T17:30:57;19.60;99.90
32877;DHT22;19226;51.600;8.034;2023-05-07T17:33:42;19.60;99.90
32877;DHT22;19226;51.600;8.034;2023-05-07T17:36:26;19.50;99.90